createdAt,value
2022-12-12T00:00:14.748Z,20.10
2022-12-12T00:02:42.488Z,19.03
2022-12-12T00:05:10.066Z,21.60
2022-12-12T00:07:36.861Z,21.50
2022-12-12T00:10:04.529Z,19.27
2022-12-12T00:12:30.996Z,20.97
2022-12-12T00:14:57.935Z,22.67
2022-12-12T00:17:24.422Z,21.07
2022-12-12T00:19:51.015Z,21.27
2022-12-12T00:22:17.722Z,21.07
2022-12-12T00:24:44.318Z,20.43
2022-12-12T00:27:10.839Z,21.73
2022-12-12T00:29:37.424Z,25.20
2022-12-12T00:32:04.036Z,30.00
2022-12-12T00:34:30.552Z,31.57
2022-12-12T00:36:57.036Z,32.07
2022-12-12T00:39:23.772Z,30.80
2022-12-12T00:41:50.860Z,32.03
2022-12-12T00:44:19.050Z,33.40
2022-12-12T00:46:45.618Z,36.23
2022-12-12T00:49:13.147Z,36.10
2022-12-12T00:51:39.609Z,35.07
2022-12-12T00:54:06.100Z,31.47
2022-12-12T00:56:32.684Z,25.13
2022-12-12T00:58:59.158Z,21.27
2022-12-12T01:01:29.008Z,25.37
2022-12-12T01:03:55.756Z,19.97
2022-12-12T01:06:22.470Z,20.73
2022-12-12T01:08:49.343Z,25.27
2022-12-12T01:11:17.495Z,21.37
2022-12-12T01:13:44.084Z,18.77
2022-12-12T01:16:11.582Z,22.90
2022-12-12T01:18:38.180Z,23.43
2022-12-12T01:21:09.707Z,21.23
2022-12-12T01:23:36.484Z,22.37
2022-12-12T01:26:06.037Z,19.47
2022-12-12T01:28:33.258Z,20.30
2022-12-12T01:30:59.833Z,24.90
2022-12-12T01:33:26.502Z,22.90
2022-12-12T01:35:53.120Z,23.47
2022-12-12T01:38:19.621Z,23.47
2022-12-12T01:40:46.806Z,23.27
2022-12-12T01:43:21.549Z,29.77
2022-12-12T01:46:03.004Z,27.60
2022-12-12T01:48:35.253Z,25.83
2022-12-12T01:51:06.991Z,29.43
2022-12-12T01:53:34.663Z,31.60
2022-12-12T01:56:06.005Z,31.53
2022-12-12T01:58:33.880Z,31.23
2022-12-12T02:01:01.574Z,35.80
2022-12-12T02:03:28.202Z,39.40
2022-12-12T02:06:02.529Z,41.17
2022-12-12T02:08:30.238Z,44.33
2022-12-12T02:10:56.880Z,43.10
2022-12-12T02:13:27.994Z,42.50
2022-12-12T02:16:14.837Z,39.47
2022-12-12T02:18:55.673Z,40.03
2022-12-12T02:21:33.409Z,43.27
2022-12-12T02:24:28.665Z,40.77
2022-12-12T02:27:29.029Z,29.43
2022-12-12T02:30:03.627Z,28.43
2022-12-12T02:32:56.985Z,28.13
2022-12-12T02:35:35.555Z,27.37
2022-12-12T02:38:26.825Z,33.53
2022-12-12T02:40:53.302Z,27.50
2022-12-12T02:43:33.905Z,22.03
2022-12-12T02:46:07.198Z,25.53
2022-12-12T02:49:18.790Z,26.77
2022-12-12T02:51:46.006Z,26.50
2022-12-12T02:54:17.535Z,27.07
2022-12-12T02:56:53.223Z,24.37
2022-12-12T02:59:20.154Z,23.13
2022-12-12T03:01:55.440Z,22.53
2022-12-12T03:04:47.764Z,24.50
2022-12-12T03:07:47.748Z,25.90
2022-12-12T03:10:41.027Z,30.63
2022-12-12T03:13:13.410Z,30.03
2022-12-12T03:15:51.633Z,27.67
2022-12-12T03:18:33.615Z,24.63
2022-12-12T03:21:05.789Z,27.07
2022-12-12T03:23:38.290Z,25.57
2022-12-12T03:26:21.455Z,27.07
2022-12-12T03:28:54.976Z,25.63
2022-12-12T03:31:25.487Z,28.33
2022-12-12T03:34:04.291Z,26.67
2022-12-12T03:36:40.675Z,30.97
2022-12-12T03:39:13.283Z,27.80
2022-12-12T03:41:43.752Z,31.67
2022-12-12T03:44:18.735Z,24.20
2022-12-12T03:46:52.066Z,27.43
2022-12-12T03:49:28.052Z,29.17
2022-12-12T03:52:03.151Z,26.40
2022-12-12T03:54:59.280Z,25.70
2022-12-12T03:57:34.486Z,25.90
2022-12-12T04:00:07.743Z,29.23
2022-12-12T04:03:17.998Z,29.83
2022-12-12T04:06:11.228Z,28.50
2022-12-12T04:08:38.887Z,27.73
2022-12-12T04:11:43.808Z,28.87
2022-12-12T04:14:45.736Z,25.63
2022-12-12T04:17:18.952Z,28.13
2022-12-12T04:20:19.461Z,30.67
2022-12-12T04:23:17.723Z,29.97
2022-12-12T04:26:24.848Z,30.00
2022-12-12T04:28:59.716Z,30.57
2022-12-12T04:31:30.732Z,26.57
2022-12-12T04:34:07.756Z,37.97
2022-12-12T04:36:35.480Z,43.07
2022-12-12T04:39:04.532Z,46.17
2022-12-12T04:41:34.450Z,48.67
2022-12-12T04:44:04.017Z,52.93
2022-12-12T04:46:33.231Z,45.23
2022-12-12T04:49:07.788Z,40.77
2022-12-12T04:51:42.463Z,48.10
2022-12-12T04:54:14.687Z,45.97
2022-12-12T04:56:44.803Z,49.30
2022-12-12T04:59:11.670Z,50.00
2022-12-12T05:01:53.511Z,48.83
2022-12-12T05:04:36.107Z,50.20
2022-12-12T05:07:09.945Z,61.80
2022-12-12T05:09:37.428Z,50.87
2022-12-12T05:12:04.499Z,52.27
2022-12-12T05:14:31.794Z,56.60
2022-12-12T05:17:03.437Z,47.93
2022-12-12T05:19:29.956Z,50.67
2022-12-12T05:21:56.440Z,46.80
2022-12-12T05:24:22.881Z,41.00
2022-12-12T05:26:49.417Z,43.13
2022-12-12T05:29:15.879Z,41.67
2022-12-12T05:31:42.326Z,39.63
2022-12-12T05:34:10.171Z,37.87
2022-12-12T05:36:36.720Z,37.90
2022-12-12T05:39:03.459Z,39.50
2022-12-12T05:41:29.946Z,38.97
2022-12-12T05:43:56.414Z,40.23
2022-12-12T05:46:22.967Z,34.47
2022-12-12T05:48:50.785Z,42.00
2022-12-12T05:51:18.046Z,44.73
2022-12-12T05:53:45.140Z,42.40
2022-12-12T05:56:12.413Z,42.80
2022-12-12T05:58:40.059Z,43.43
2022-12-12T06:01:07.263Z,47.63
2022-12-12T06:03:34.491Z,41.07
2022-12-12T06:06:01.497Z,43.17
2022-12-12T06:08:28.112Z,47.57
2022-12-12T06:10:55.925Z,47.03
2022-12-12T06:13:22.420Z,45.73
2022-12-12T06:15:48.989Z,47.97
2022-12-12T06:18:16.392Z,47.30
2022-12-12T06:20:43.766Z,49.87
2022-12-12T06:23:10.375Z,45.87
2022-12-12T06:25:36.819Z,53.07
2022-12-12T06:28:03.475Z,46.90
2022-12-12T06:30:29.964Z,44.47
2022-12-12T06:32:56.489Z,50.00
2022-12-12T06:35:23.025Z,51.70
2022-12-12T06:37:49.561Z,52.10
2022-12-12T06:40:16.372Z,47.30
2022-12-12T06:42:47.874Z,44.60
2022-12-12T06:45:15.742Z,47.23
2022-12-12T06:47:42.456Z,51.63
2022-12-12T06:50:09.464Z,53.53
2022-12-12T06:52:36.678Z,49.80
2022-12-12T06:55:03.541Z,47.27
2022-12-12T06:57:30.009Z,50.83
2022-12-12T06:59:56.451Z,63.07
2022-12-12T07:02:29.265Z,61.97
2022-12-12T07:04:56.785Z,60.67
2022-12-12T07:07:23.357Z,68.63
2022-12-12T07:09:49.921Z,70.90
2022-12-12T07:12:16.409Z,70.23
2022-12-12T07:14:42.843Z,72.80
2022-12-12T07:17:09.311Z,83.90
2022-12-12T07:19:36.011Z,73.50
2022-12-12T07:22:09.145Z,74.33
2022-12-12T07:24:36.508Z,82.33
2022-12-12T07:27:03.340Z,80.90
2022-12-12T07:29:29.931Z,69.73
2022-12-12T07:31:56.456Z,67.37
2022-12-12T07:34:22.976Z,77.97
2022-12-12T07:36:49.490Z,65.70
2022-12-12T07:39:20.592Z,68.43
2022-12-12T07:41:47.672Z,65.43
2022-12-12T07:44:15.907Z,77.93
2022-12-12T07:46:42.474Z,85.30
2022-12-12T07:49:08.975Z,75.73
2022-12-12T07:51:35.642Z,70.90
2022-12-12T07:54:02.134Z,93.67
2022-12-12T07:56:28.603Z,75.50
2022-12-12T07:58:55.476Z,71.20
2022-12-12T08:01:25.386Z,73.43
2022-12-12T08:03:52.431Z,73.93
2022-12-12T08:06:19.805Z,69.93
2022-12-12T08:08:47.861Z,65.30
2022-12-12T08:11:18.448Z,62.83
2022-12-12T08:13:45.105Z,78.17
2022-12-12T08:16:33.673Z,82.57
2022-12-12T08:19:00.441Z,76.67
2022-12-12T08:21:27.910Z,75.40
2022-12-12T08:24:02.132Z,73.77
2022-12-12T08:26:29.628Z,74.40
2022-12-12T08:28:57.485Z,65.73
2022-12-12T08:31:24.735Z,61.83
2022-12-12T08:33:51.915Z,58.50
2022-12-12T08:36:21.629Z,58.67
2022-12-12T08:38:49.016Z,57.47
2022-12-12T08:41:16.176Z,56.77
2022-12-12T08:43:43.806Z,49.93
2022-12-12T08:46:17.111Z,51.47
2022-12-12T08:48:44.977Z,48.30
2022-12-12T08:51:12.181Z,40.50
2022-12-12T08:53:43.971Z,42.87
2022-12-12T08:56:10.430Z,43.83
2022-12-12T08:58:36.945Z,43.70
2022-12-12T09:01:09.061Z,47.70
2022-12-12T09:03:35.518Z,44.77
2022-12-12T09:06:01.971Z,38.90
2022-12-12T09:08:30.724Z,41.70
2022-12-12T09:10:57.312Z,44.80
2022-12-12T09:13:23.785Z,42.17
2022-12-12T09:15:51.383Z,42.47
2022-12-12T09:18:19.178Z,46.13
2022-12-12T09:20:53.880Z,40.80
2022-12-12T09:23:21.900Z,41.73
2022-12-12T09:25:48.860Z,46.80
2022-12-12T09:28:17.985Z,49.00
2022-12-12T09:30:45.628Z,45.33
2022-12-12T09:33:15.788Z,45.67
2022-12-12T09:35:42.909Z,45.20
2022-12-12T09:38:14.271Z,45.20
2022-12-12T09:41:10.765Z,41.10
2022-12-12T09:43:43.897Z,34.70
2022-12-12T09:46:37.720Z,41.37
2022-12-12T09:49:30.243Z,37.70
2022-12-12T09:51:57.938Z,40.03
2022-12-12T09:54:27.007Z,39.37
2022-12-12T09:57:11.869Z,41.10
2022-12-12T09:59:49.642Z,38.73
2022-12-12T10:02:58.336Z,39.37
2022-12-12T10:05:42.028Z,40.20
2022-12-12T10:08:11.472Z,38.07
2022-12-12T10:11:04.050Z,37.17
2022-12-12T10:13:33.185Z,40.50
2022-12-12T10:16:14.500Z,36.33
2022-12-12T10:18:48.764Z,36.67
2022-12-12T10:21:41.959Z,33.77
2022-12-12T10:24:32.894Z,35.30
2022-12-12T10:27:08.440Z,34.97
2022-12-12T10:29:41.101Z,40.87
2022-12-12T10:32:41.571Z,40.43
2022-12-12T10:35:49.764Z,39.30
2022-12-12T10:38:47.132Z,36.67
2022-12-12T10:41:31.155Z,35.50
2022-12-12T10:44:22.310Z,38.73
2022-12-12T10:47:18.343Z,36.50
2022-12-12T10:49:44.944Z,36.23
2022-12-12T10:52:18.263Z,36.03
2022-12-12T10:54:50.830Z,37.10
2022-12-12T10:57:26.827Z,38.70
2022-12-12T10:59:56.044Z,35.03
2022-12-12T11:02:22.595Z,40.93
2022-12-12T11:04:49.345Z,40.00
2022-12-12T11:07:20.847Z,39.50
2022-12-12T11:09:47.308Z,34.60
2022-12-12T11:12:16.640Z,36.13
2022-12-12T11:14:52.503Z,38.07
2022-12-12T11:17:24.727Z,37.57
2022-12-12T11:19:53.576Z,40.80
2022-12-12T11:22:21.070Z,40.77
2022-12-12T11:24:49.770Z,42.20
2022-12-12T11:27:28.941Z,39.07
2022-12-12T11:30:00.458Z,41.17
2022-12-12T11:32:37.820Z,38.80
2022-12-12T11:35:21.214Z,42.07
2022-12-12T11:37:51.419Z,34.43
2022-12-12T11:40:31.019Z,36.63
2022-12-12T11:43:22.353Z,38.73
2022-12-12T11:46:15.291Z,35.27
2022-12-12T11:49:02.776Z,39.37
2022-12-12T11:51:37.022Z,38.57
2022-12-12T11:54:10.710Z,34.60
2022-12-12T11:56:53.088Z,34.87
2022-12-12T11:59:56.905Z,32.93
2022-12-12T12:02:51.311Z,37.40
2022-12-12T12:05:20.713Z,35.60
2022-12-12T12:08:02.418Z,31.40
2022-12-12T12:10:28.878Z,36.90
2022-12-12T12:12:58.349Z,36.07
2022-12-12T12:15:38.224Z,33.13
2022-12-12T12:18:28.412Z,33.10
2022-12-12T12:21:07.099Z,36.13
2022-12-12T12:23:55.823Z,56.53
2022-12-12T12:26:35.110Z,43.60
2022-12-12T12:29:29.851Z,35.47
2022-12-12T12:32:27.706Z,36.00
2022-12-12T12:35:03.438Z,35.73
2022-12-12T12:37:50.761Z,35.03
2022-12-12T12:40:41.671Z,32.23
2022-12-12T12:43:41.880Z,32.40
2022-12-12T12:46:29.697Z,33.00
2022-12-12T12:49:04.232Z,32.87
2022-12-12T12:51:50.095Z,30.90
2022-12-12T12:54:39.255Z,32.97
2022-12-12T12:57:12.399Z,35.10
2022-12-12T12:59:43.848Z,31.20
2022-12-12T13:02:25.300Z,31.97
2022-12-12T13:05:07.343Z,29.20
2022-12-12T13:07:46.227Z,46.37
2022-12-12T13:10:33.589Z,31.93
2022-12-12T13:13:15.460Z,30.57
2022-12-12T13:15:46.677Z,27.90
2022-12-12T13:18:15.831Z,32.80
2022-12-12T13:20:46.008Z,34.03
2022-12-12T13:23:19.406Z,38.87
2022-12-12T13:26:06.448Z,27.70
2022-12-12T13:28:40.580Z,27.03
2022-12-12T13:31:25.427Z,34.87
2022-12-12T13:34:09.386Z,33.70
2022-12-12T13:36:40.015Z,29.70
2022-12-12T13:39:08.992Z,24.87
2022-12-12T13:42:01.184Z,26.70
2022-12-12T13:44:47.251Z,25.60
2022-12-12T13:47:22.683Z,25.83
2022-12-12T13:50:00.620Z,24.83
2022-12-12T13:52:38.023Z,23.57
2022-12-12T13:55:21.478Z,25.23
2022-12-12T13:57:57.194Z,24.33
2022-12-12T14:00:28.162Z,26.23
2022-12-12T14:03:01.719Z,26.40
2022-12-12T14:05:33.480Z,29.70
2022-12-12T14:08:22.456Z,30.53
2022-12-12T14:10:48.929Z,27.20
2022-12-12T14:13:21.226Z,21.63
2022-12-12T14:16:13.916Z,26.47
2022-12-12T14:18:57.548Z,29.53
2022-12-12T14:21:38.777Z,27.50
2022-12-12T14:24:33.529Z,28.13
2022-12-12T14:27:01.584Z,27.13
2022-12-12T14:29:30.346Z,27.73
2022-12-12T14:32:33.227Z,26.87
2022-12-12T14:35:29.020Z,24.63
2022-12-12T14:38:27.848Z,27.80
2022-12-12T14:41:00.330Z,28.37
2022-12-12T14:43:31.090Z,23.07
2022-12-12T14:45:59.766Z,23.90
2022-12-12T14:48:28.827Z,25.70
2022-12-12T14:51:10.258Z,22.30
2022-12-12T14:53:36.686Z,22.67
2022-12-12T14:56:29.639Z,19.90
2022-12-12T14:59:02.937Z,24.63
2022-12-12T15:01:34.345Z,21.87
2022-12-12T15:04:07.316Z,23.37
2022-12-12T15:06:53.385Z,21.43
2022-12-12T15:09:30.229Z,25.30
2022-12-12T15:12:42.725Z,23.23
2022-12-12T15:15:27.335Z,27.87
2022-12-12T15:17:58.629Z,27.00
2022-12-12T15:20:28.396Z,40.77
2022-12-12T15:23:01.552Z,37.20
2022-12-12T15:25:34.340Z,36.37
2022-12-12T15:28:01.895Z,44.87
2022-12-12T15:30:37.597Z,33.27
2022-12-12T15:33:08.862Z,43.37
2022-12-12T15:35:35.681Z,54.90
2022-12-12T15:38:10.324Z,135.67
2022-12-12T15:40:38.193Z,37.90
2022-12-12T15:43:11.030Z,30.07
2022-12-12T15:45:43.703Z,38.83
2022-12-12T15:48:18.298Z,28.40
2022-12-12T15:50:44.670Z,25.00
2022-12-12T15:53:32.484Z,24.50
2022-12-12T15:56:00.628Z,27.83
2022-12-12T15:58:40.045Z,28.43
2022-12-12T16:01:20.672Z,27.73
2022-12-12T16:03:58.115Z,28.13
2022-12-12T16:06:33.446Z,26.33
2022-12-12T16:09:00.656Z,38.77
2022-12-12T16:11:37.687Z,49.77
2022-12-12T16:14:22.629Z,60.90
2022-12-12T16:16:59.573Z,57.23
2022-12-12T16:19:45.899Z,35.70
2022-12-12T16:22:18.255Z,31.00
2022-12-12T16:24:54.615Z,28.17
2022-12-12T16:27:21.771Z,29.87
2022-12-12T16:29:48.623Z,32.07
2022-12-12T16:32:18.151Z,28.43
2022-12-12T16:34:45.182Z,29.93
2022-12-12T16:37:17.381Z,28.97
2022-12-12T16:39:44.362Z,32.47
2022-12-12T16:42:13.163Z,31.37
2022-12-12T16:44:39.660Z,29.73
2022-12-12T16:47:23.914Z,30.13
2022-12-12T16:49:50.908Z,32.57
2022-12-12T16:52:19.395Z,30.60
2022-12-12T16:54:53.190Z,29.43
2022-12-12T16:57:21.958Z,29.90
2022-12-12T16:59:48.705Z,28.70
2022-12-12T17:02:18.211Z,29.90
2022-12-12T17:04:44.693Z,29.50
2022-12-12T17:07:11.197Z,26.70
2022-12-12T17:09:37.681Z,29.10
2022-12-12T17:12:04.461Z,29.60
2022-12-12T17:14:31.029Z,31.20
2022-12-12T17:16:57.615Z,32.33
2022-12-12T17:19:26.281Z,45.53
2022-12-12T17:21:53.205Z,49.77
2022-12-12T17:24:20.537Z,46.20
2022-12-12T17:26:47.940Z,44.90
2022-12-12T17:29:14.577Z,42.53
2022-12-12T17:31:41.336Z,42.10
2022-12-12T17:34:08.088Z,44.57
2022-12-12T17:36:34.693Z,44.00
2022-12-12T17:39:01.253Z,40.60
2022-12-12T17:41:27.849Z,41.73
2022-12-12T17:43:56.019Z,44.60
2022-12-12T17:46:23.292Z,48.67
2022-12-12T17:48:50.191Z,41.17
2022-12-12T17:51:19.685Z,45.47
2022-12-12T17:53:46.387Z,43.20
2022-12-12T17:56:16.005Z,39.13
2022-12-12T17:58:44.687Z,42.60
2022-12-12T18:01:17.848Z,42.67
2022-12-12T18:03:44.632Z,38.83
2022-12-12T18:06:11.547Z,32.80
2022-12-12T18:08:38.659Z,36.27
2022-12-12T18:11:15.039Z,37.37
2022-12-12T18:13:42.256Z,39.70
2022-12-12T18:16:11.642Z,39.90
2022-12-12T18:18:39.175Z,43.60
2022-12-12T18:21:10.563Z,39.63
2022-12-12T18:23:39.394Z,41.57
2022-12-12T18:26:09.732Z,39.53
2022-12-12T18:28:36.519Z,38.97
2022-12-12T18:31:04.626Z,42.43
2022-12-12T18:33:31.126Z,49.13
2022-12-12T18:36:06.086Z,46.03
2022-12-12T18:38:33.454Z,49.27
2022-12-12T18:41:00.309Z,51.47
2022-12-12T18:43:28.279Z,48.73
2022-12-12T18:45:55.692Z,46.13
2022-12-12T18:48:22.373Z,51.30
2022-12-12T18:50:48.899Z,52.13
2022-12-12T18:53:15.846Z,50.03
2022-12-12T18:55:42.963Z,54.73
2022-12-12T18:58:10.813Z,50.33
2022-12-12T19:00:40.142Z,47.63
2022-12-12T19:03:07.689Z,48.77
2022-12-12T19:05:39.345Z,53.07
2022-12-12T19:08:05.898Z,49.57
2022-12-12T19:10:34.485Z,48.50
2022-12-12T19:13:01.219Z,47.57
2022-12-12T19:15:27.836Z,48.67
2022-12-12T19:17:55.985Z,50.57
2022-12-12T19:20:23.962Z,46.40
2022-12-12T19:22:50.537Z,53.30
2022-12-12T19:25:18.060Z,48.93
2022-12-12T19:27:45.110Z,54.20
2022-12-12T19:30:13.283Z,53.27
2022-12-12T19:32:41.319Z,55.27
2022-12-12T19:35:08.486Z,51.73
2022-12-12T19:37:36.022Z,54.60
2022-12-12T19:40:02.532Z,57.00
2022-12-12T19:42:28.972Z,60.27
2022-12-12T19:44:55.418Z,63.40
2022-12-12T19:47:21.890Z,56.53
2022-12-12T19:49:49.187Z,70.07
2022-12-12T19:52:15.648Z,57.73
2022-12-12T19:54:42.150Z,60.60
2022-12-12T19:57:08.613Z,56.87
2022-12-12T19:59:35.076Z,60.90
2022-12-12T20:02:01.595Z,58.17
2022-12-12T20:04:30.055Z,57.10
2022-12-12T20:06:57.278Z,57.17
2022-12-12T20:09:29.278Z,53.47
2022-12-12T20:11:58.081Z,54.20
2022-12-12T20:14:33.609Z,48.07
2022-12-12T20:17:00.657Z,47.73
2022-12-12T20:19:27.809Z,59.27
2022-12-12T20:22:03.631Z,56.20
2022-12-12T20:24:32.561Z,57.93
2022-12-12T20:27:00.004Z,52.80
2022-12-12T20:29:27.219Z,50.57
2022-12-12T20:31:53.708Z,52.73
2022-12-12T20:34:22.507Z,54.53
2022-12-12T20:36:50.186Z,57.63
2022-12-12T20:39:22.084Z,50.93
2022-12-12T20:41:50.174Z,55.60
2022-12-12T20:44:16.649Z,46.90
2022-12-12T20:46:45.787Z,51.67
2022-12-12T20:49:17.977Z,43.40
2022-12-12T20:51:55.179Z,53.33
2022-12-12T20:54:24.009Z,52.77
2022-12-12T20:56:50.495Z,54.07
2022-12-12T20:59:17.050Z,63.63
2022-12-12T21:01:43.632Z,52.93
2022-12-12T21:04:10.490Z,53.43
2022-12-12T21:06:48.049Z,54.93
2022-12-12T21:09:22.741Z,58.07
2022-12-12T21:11:52.897Z,53.53
2022-12-12T21:14:19.520Z,53.40
2022-12-12T21:16:46.328Z,55.30
2022-12-12T21:19:14.242Z,83.30
2022-12-12T21:21:42.560Z,87.13
2022-12-12T21:24:12.186Z,103.10
2022-12-12T21:26:38.746Z,84.77
2022-12-12T21:29:05.867Z,108.27
2022-12-12T21:31:36.257Z,83.47
2022-12-12T21:34:05.689Z,66.30
2022-12-12T21:36:33.491Z,74.47
2022-12-12T21:39:02.339Z,65.43
2022-12-12T21:41:29.656Z,62.87
2022-12-12T21:43:59.347Z,67.53
2022-12-12T21:46:28.441Z,68.40
2022-12-12T21:49:14.692Z,63.97
2022-12-12T21:51:41.740Z,64.20
2022-12-12T21:54:10.450Z,68.77
2022-12-12T21:56:38.004Z,68.67
2022-12-12T21:59:04.742Z,58.83
2022-12-12T22:01:32.363Z,61.27
2022-12-12T22:03:59.958Z,61.83
2022-12-12T22:06:29.689Z,59.03
2022-12-12T22:08:57.149Z,51.67
2022-12-12T22:11:40.785Z,51.93
2022-12-12T22:14:11.312Z,51.83
2022-12-12T22:16:38.420Z,56.63
2022-12-12T22:19:07.817Z,68.87
2022-12-12T22:21:35.193Z,57.70
2022-12-12T22:24:02.165Z,62.67
2022-12-12T22:26:33.390Z,61.03
2022-12-12T22:29:03.363Z,94.33
2022-12-12T22:31:31.807Z,96.87
2022-12-12T22:34:01.311Z,76.27
2022-12-12T22:36:33.908Z,61.47
2022-12-12T22:39:01.501Z,55.87
2022-12-12T22:41:29.380Z,90.17
2022-12-12T22:44:01.753Z,70.57
2022-12-12T22:46:28.866Z,67.43
2022-12-12T22:48:57.393Z,65.17
2022-12-12T22:51:27.463Z,61.60
2022-12-12T22:54:02.519Z,58.40
2022-12-12T22:56:30.998Z,62.20
2022-12-12T22:58:58.162Z,70.57
2022-12-12T23:01:26.501Z,101.03
2022-12-12T23:03:53.109Z,74.27
2022-12-12T23:06:32.657Z,54.57
2022-12-12T23:09:05.820Z,56.30
2022-12-12T23:11:33.499Z,71.37
2022-12-12T23:14:02.939Z,56.47
2022-12-12T23:16:30.936Z,58.97
2022-12-12T23:18:58.629Z,56.70
2022-12-12T23:21:26.193Z,59.90
2022-12-12T23:23:54.179Z,56.03
2022-12-12T23:26:23.784Z,56.27
2022-12-12T23:28:50.253Z,59.30
2022-12-12T23:31:20.031Z,58.67
2022-12-12T23:33:46.755Z,58.57
2022-12-12T23:36:15.178Z,57.30
2022-12-12T23:38:42.223Z,56.63
2022-12-12T23:41:11.303Z,58.53
2022-12-12T23:43:38.266Z,64.33
2022-12-12T23:46:07.554Z,61.83
2022-12-12T23:48:35.029Z,57.27
2022-12-12T23:51:01.645Z,60.33
2022-12-12T23:53:32.483Z,54.83
2022-12-12T23:56:03.950Z,59.17
2022-12-12T23:58:30.459Z,59.93
